Observation data for Andrews on 01/19/2019      Previous  Date  Next       Current Mesonet Observations  Soil Data  Daily Summary Page  Observations in Plain Language
KANS 190600Z 35024G32KT 05/M02 A3011 RMK A01 T00541016  RH  061%=      5-min Rain = 0
KANS 190605Z 35020G29KT 05/M02 A3011 RMK A01 T00521016  RH  062%=      5-min Rain = 0
KANS 190610Z 35022G28KT 05/M02 A3011 RMK A01 T00511016  RH  063%=      5-min Rain = 0
KANS 190615Z 35019G27KT 05/M02 A3012 RMK A01 T00501015  RH  064%=      5-min Rain = 0
KANS 190620Z 34020G29KT 05/M01 A3012 RMK A01 T00491014  RH  064%=      5-min Rain = 0
KANS 190625Z 34019G25KT 05/M01 A3012 RMK A01 T00471014  RH  065%=      5-min Rain = 0
KANS 190630Z 34018G26KT 04/M01 A3012 RMK A01 T00441014  RH  067%=      5-min Rain = 0
KANS 190635Z 34016G22KT 04/M01 A3012 RMK A01 T00421013  RH  068%=      5-min Rain = 0
KANS 190640Z 34017G22KT 04/M01 A3012 RMK A01 T00411013  RH  069%=      5-min Rain = 0
KANS 190645Z 34015G20KT 04/M01 A3012 RMK A01 T00391013  RH  070%=      5-min Rain = 0
KANS 190650Z 34014KT 04/M01 A3012 RMK A01 T00381012  RH  070%=      5-min Rain = 0
KANS 190655Z 34012KT 04/M01 A3013 RMK A01 T00371012  RH  071%=      5-min Rain = 0
KANS 190700Z 34012G17KT 04/M01 A3013 RMK A01 T00361012  RH  072%=      5-min Rain = 0
KANS 190705Z 34012KT 04/M01 A3013 RMK A01 T00361012  RH  072%=      5-min Rain = 0
KANS 190710Z 34010G15KT 04/M01 A3013 RMK A01 T00351012  RH  072%=      5-min Rain = 0
KANS 190715Z 34011KT 04/M01 A3013 RMK A01 T00351011  RH  073%=      5-min Rain = 0
KANS 190720Z 33012KT 04/M01 A3013 RMK A01 T00351010  RH  073%=      5-min Rain = 0
KANS 190725Z 33012KT 04/M01 A3014 RMK A01 T00361009  RH  073%=      5-min Rain = 0
KANS 190730Z 33013KT 04/M01 A3014 RMK A01 T00361008  RH  073%=      5-min Rain = 0
KANS 190735Z 33016G21KT 04/M01 A3014 RMK A01 T00391008  RH  073%=      5-min Rain = 0
KANS 190740Z 33019G27KT 04/M01 A3014 RMK A01 T00411008  RH  071%=      5-min Rain = 0
KANS 190745Z 33020G28KT 04/M01 A3014 RMK A01 T00421011  RH  069%=      5-min Rain = 0
KANS 190750Z 33019G25KT 04/M01 A3015 RMK A01 T00411013  RH  069%=      5-min Rain = 0
KANS 190755Z 34019G26KT 04/M01 A3015 RMK A01 T00411013  RH  069%=      5-min Rain = 0
KANS 190800Z 34019G27KT 04/M01 A3015 RMK A01 T00411014  RH  068%=      5-min Rain = 0
KANS 190805Z 34019G25KT 04/M02 A3016 RMK A01 T00411015  RH  068%=      5-min Rain = 0
KANS 190810Z 34020G29KT 04/M02 A3016 RMK A01 T00401019  RH  066%=      5-min Rain = 0
KANS 190815Z 34020G28KT 04/M02 A3016 RMK A01 T00381024  RH  065%=      5-min Rain = 0
KANS 190820Z 34022G30KT 04/M03 A3017 RMK A01 T00371025  RH  064%=      5-min Rain = 0
KANS 190825Z 34021G31KT 04/M03 A3017 RMK A01 T00371025  RH  064%=      5-min Rain = 0
KANS 190830Z 34018G25KT 04/M03 A3017 RMK A01 T00361025  RH  065%=      5-min Rain = 0
KANS 190835Z 34016G21KT 03/M02 A3017 RMK A01 T00341024  RH  067%=      5-min Rain = 0
KANS 190840Z 33017G22KT 03/M02 A3017 RMK A01 T00341023  RH  067%=      5-min Rain = 0
KANS 190845Z 33016G21KT 03/M02 A3017 RMK A01 T00341022  RH  067%=      5-min Rain = 0
KANS 190850Z 33015G20KT 03/M02 A3018 RMK A01 T00331022  RH  068%=      5-min Rain = 0
KANS 190855Z 33014G21KT 03/M02 A3018 RMK A01 T00331020  RH  069%=      5-min Rain = 0
KANS 190900Z 33019G26KT 03/M02 A3019 RMK A01 T00341022  RH  067%=      5-min Rain = 0
KANS 190905Z 34023G30KT 03/M03 A3019 RMK A01 T00341029  RH  064%=      5-min Rain = 0
KANS 190910Z 34020G26KT 03/M03 A3019 RMK A01 T00341032  RH  062%=      5-min Rain = 0
KANS 190915Z 34016G23KT 03/M03 A302 RMK A01 T00331032  RH  063%=      5-min Rain = 0
KANS 190920Z 33017G25KT 03/M03 A302 RMK A01 T00311032  RH  064%=      5-min Rain = 0
KANS 190925Z 34017G24KT 03/M03 A3019 RMK A01 T00311033  RH  063%=      5-min Rain = 0
KANS 190930Z 34018G23KT 03/M03 A302 RMK A01 T00311034  RH  063%=      5-min Rain = 0
KANS 190935Z 34017G23KT 03/M04 A302 RMK A01 T00301035  RH  063%=      5-min Rain = 0
KANS 190940Z 34015G20KT 03/M04 A302 RMK A01 T00301035  RH  063%=      5-min Rain = 0
KANS 190945Z 34015KT 03/M04 A302 RMK A01 T00281035  RH  064%=      5-min Rain = 0
KANS 190950Z 33014KT 03/M04 A302 RMK A01 T00271035  RH  064%=      5-min Rain = 0
KANS 190955Z 33013G18KT 03/M03 A3021 RMK A01 T00261034  RH  065%=      5-min Rain = 0
KANS 191000Z 33012KT 03/M03 A3021 RMK A01 T00251034  RH  066%=      5-min Rain = 0
KANS 191005Z 33014KT 03/M03 A3021 RMK A01 T00261034  RH  066%=      5-min Rain = 0
KANS 191010Z 33012KT 03/M03 A3021 RMK A01 T00261033  RH  066%=      5-min Rain = 0
KANS 191015Z 33010KT 03/M03 A3021 RMK A01 T00251032  RH  067%=      5-min Rain = 0
KANS 191020Z 32010KT 02/M03 A3022 RMK A01 T00241031  RH  068%=      5-min Rain = 0
KANS 191025Z 32011KT 02/M03 A3022 RMK A01 T00231031  RH  068%=      5-min Rain = 0
KANS 191030Z 33011G16KT 02/M03 A3021 RMK A01 T00231030  RH  068%=      5-min Rain = 0
KANS 191035Z 34012G17KT 02/M03 A3021 RMK A01 T00241030  RH  068%=      5-min Rain = 0
KANS 191040Z 33010KT 02/M03 A3022 RMK A01 T00241030  RH  068%=      5-min Rain = 0
KANS 191045Z 33011KT 02/M03 A3022 RMK A01 T00241031  RH  068%=      5-min Rain = 0
KANS 191050Z 33010KT 03/M03 A3022 RMK A01 T00251032  RH  067%=      5-min Rain = 0
KANS 191055Z 33010KT 03/M03 A3022 RMK A01 T00251033  RH  066%=      5-min Rain = 0
KANS 191100Z 33010KT 03/M03 A3023 RMK A01 T00251034  RH  066%=      5-min Rain = 0
KANS 191105Z 33010KT 03/M03 A3023 RMK A01 T00251034  RH  065%=      5-min Rain = 0
KANS 191110Z 33010KT 03/M04 A3023 RMK A01 T00251035  RH  065%=      5-min Rain = 0
KANS 191115Z 33008KT 02/M04 A3023 RMK A01 T00241035  RH  066%=      5-min Rain = 0
KANS 191120Z 32008KT 02/M04 A3023 RMK A01 T00231035  RH  066%=      5-min Rain = 0
KANS 191125Z 32007KT 02/M04 A3023 RMK A01 T00221036  RH  066%=      5-min Rain = 0
KANS 191130Z 33007KT 02/M04 A3023 RMK A01 T00191036  RH  067%=      5-min Rain = 0
KANS 191135Z 33007KT 02/M04 A3023 RMK A01 T00161037  RH  068%=      5-min Rain = 0
KANS 191140Z 32006KT 01/M04 A3023 RMK A01 T00131038  RH  070%=      5-min Rain = 0
KANS 191145Z 32006KT 01/M04 A3022 RMK A01 T00101039  RH  071%=      5-min Rain = 0
KANS 191150Z 32007KT 01/M04 A3022 RMK A01 T00071039  RH  072%=      5-min Rain = 0
KANS 191155Z 32007KT 01/M04 A3022 RMK A01 T00051039  RH  073%=      5-min Rain = 0
KANS 191200Z 32008KT 01/M04 A3023 RMK A01 T00061038  RH  074%=      5-min Rain = 0
KANS 191205Z 32008KT 01/M04 A3023 RMK A01 T00081036  RH  073%=      5-min Rain = 0
KANS 191210Z 32009KT 01/M04 A3023 RMK A01 T00101035  RH  073%=      5-min Rain = 0
KANS 191215Z 32009KT 01/M04 A3023 RMK A01 T00121035  RH  072%=      5-min Rain = 0
KANS 191220Z 32009KT 01/M03 A3024 RMK A01 T00121034  RH  072%=      5-min Rain = 0
KANS 191225Z 32009KT 01/M03 A3024 RMK A01 T00131034  RH  072%=      5-min Rain = 0
KANS 191230Z 32010KT 01/M03 A3024 RMK A01 T00131034  RH  072%=      5-min Rain = 0
KANS 191235Z 32011KT 01/M03 A3025 RMK A01 T00131034  RH  072%=      5-min Rain = 0
KANS 191240Z 32011KT 01/M03 A3025 RMK A01 T00131034  RH  072%=      5-min Rain = 0
KANS 191245Z 32010KT 01/M03 A3025 RMK A01 T00121034  RH  072%=      5-min Rain = 0
KANS 191250Z 31009KT 01/M03 A3026 RMK A01 T00121034  RH  072%=      5-min Rain = 0
KANS 191255Z 31010KT 01/M03 A3026 RMK A01 T00141034  RH  071%=      5-min Rain = 0
KANS 191300Z 31010KT 02/M03 A3027 RMK A01 T00161034  RH  070%=      5-min Rain = 0
KANS 191305Z 31009KT 02/M03 A3027 RMK A01 T00171034  RH  070%=      5-min Rain = 0
KANS 191310Z 30010KT 02/M03 A3027 RMK A01 T00171034  RH  069%=      5-min Rain = 0
KANS 191315Z 30008KT 02/M03 A3027 RMK A01 T00191034  RH  069%=      5-min Rain = 0
KANS 191320Z 30009KT 02/M04 A3028 RMK A01 T00191035  RH  068%=      5-min Rain = 0
KANS 191325Z 30009KT 02/M04 A3029 RMK A01 T00181035  RH  069%=      5-min Rain = 0
KANS 191330Z 29009KT 02/M04 A3029 RMK A01 T00161036  RH  069%=      5-min Rain = 0
KANS 191335Z 29010KT 02/M04 A3029 RMK A01 T00161036  RH  069%=      5-min Rain = 0
KANS 191340Z 29009KT 02/M04 A3029 RMK A01 T00161036  RH  069%=      5-min Rain = 0
KANS 191345Z 29009KT 02/M04 A3029 RMK A01 T00161036  RH  069%=      5-min Rain = 0
KANS 191350Z 29010KT 02/M04 A303 RMK A01 T00161036  RH  069%=      5-min Rain = 0
KANS 191355Z 30009KT 02/M04 A303 RMK A01 T00171036  RH  069%=      5-min Rain = 0
KANS 191400Z 30009KT 02/M04 A303 RMK A01 T00171036  RH  068%=      5-min Rain = 0
KANS 191405Z 30009KT 02/M04 A303 RMK A01 T00191036  RH  068%=      5-min Rain = 0
KANS 191410Z 30010KT 02/M04 A303 RMK A01 T00211037  RH  067%=      5-min Rain = 0
KANS 191415Z 30010KT 02/M04 A3031 RMK A01 T00231037  RH  065%=      5-min Rain = 0
KANS 191420Z 30010KT 03/M04 A3031 RMK A01 T00251038  RH  064%=      5-min Rain = 0
KANS 191425Z 31009G15KT 03/M04 A3031 RMK A01 T00281038  RH  063%=      5-min Rain = 0
KANS 191430Z 31010KT 03/M04 A3031 RMK A01 T00301038  RH  061%=      5-min Rain = 0
KANS 191435Z 31009KT 03/M04 A3032 RMK A01 T00321038  RH  061%=      5-min Rain = 0
KANS 191440Z 31010KT 03/M04 A3032 RMK A01 T00331038  RH  060%=      5-min Rain = 0
KANS 191445Z 31011KT 03/M04 A3032 RMK A01 T00341039  RH  059%=      5-min Rain = 0
KANS 191450Z 31010KT 04/M04 A3032 RMK A01 T00361038  RH  059%=      5-min Rain = 0
KANS 191455Z 31010KT 04/M04 A3033 RMK A01 T00381039  RH  058%=      5-min Rain = 0
KANS 191500Z 31011G17KT 04/M04 A3033 RMK A01 T00401038  RH  057%=      5-min Rain = 0
KANS 191505Z 32011KT 04/M04 A3033 RMK A01 T00441038  RH  056%=      5-min Rain = 0
KANS 191510Z 31012G17KT 05/M04 A3033 RMK A01 T00461039  RH  055%=      5-min Rain = 0
KANS 191515Z 32011KT 05/M04 A3033 RMK A01 T00481039  RH  054%=      5-min Rain = 0
KANS 191520Z 32011KT 05/M04 A3033 RMK A01 T00511038  RH  053%=      5-min Rain = 0
KANS 191525Z 32011KT 05/M04 A3033 RMK A01 T00531039  RH  052%=      5-min Rain = 0
KANS 191530Z 33013KT 06/M04 A3033 RMK A01 T00561039  RH  051%=      5-min Rain = 0
KANS 191535Z 33012KT 06/M04 A3034 RMK A01 T00571039  RH  050%=      5-min Rain = 0
KANS 191540Z 33014G19KT 06/M04 A3034 RMK A01 T00591040  RH  049%=      5-min Rain = 0
KANS 191545Z 33013KT 06/M04 A3034 RMK A01 T00611039  RH  049%=      5-min Rain = 0
KANS 191550Z 33013G18KT 06/M04 A3035 RMK A01 T00641040  RH  048%=      5-min Rain = 0
KANS 191555Z 34014G19KT 07/M04 A3035 RMK A01 T00661040  RH  047%=      5-min Rain = 0
KANS 191600Z 33015KT 07/M04 A3035 RMK A01 T00681042  RH  046%=      5-min Rain = 0
KANS 191605Z 34013G18KT 07/M04 A3036 RMK A01 T00701042  RH  045%=      5-min Rain = 0
KANS 191610Z 33015KT 07/M04 A3036 RMK A01 T00741043  RH  044%=      5-min Rain = 0
KANS 191615Z 34014G19KT 08/M04 A3036 RMK A01 T00771044  RH  043%=      5-min Rain = 0
KANS 191620Z 35014KT 08/M04 A3036 RMK A01 T00801044  RH  042%=      5-min Rain = 0
KANS 191625Z 34015G22KT 08/M05 A3036 RMK A01 T00831046  RH  040%=      5-min Rain = 0
KANS 191630Z 34015G21KT 08/M05 A3036 RMK A01 T00841046  RH  040%=      5-min Rain = 0
KANS 191635Z 35016G21KT 09/M05 A3036 RMK A01 T00851050  RH  039%=      5-min Rain = 0
KANS 191640Z 34015G20KT 09/M05 A3036 RMK A01 T00881050  RH  038%=      5-min Rain = 0
KANS 191645Z 34014G20KT 09/M05 A3037 RMK A01 T00911051  RH  037%=      5-min Rain = 0
KANS 191650Z 35015G21KT 09/M05 A3037 RMK A01 T00921053  RH  036%=      5-min Rain = 0
KANS 191655Z 35016G22KT 09/M06 A3037 RMK A01 T00931055  RH  035%=      5-min Rain = 0
KANS 191700Z 35015G20KT 10/M06 A3037 RMK A01 T00961055  RH  034%=      5-min Rain = 0
KANS 191705Z 35016KT 10/M06 A3037 RMK A01 T00961055  RH  034%=      5-min Rain = 0
KANS 191710Z 35014KT 10/M06 A3037 RMK A01 T00961055  RH  034%=      5-min Rain = 0
KANS 191715Z 35014G21KT 10/M05 A3037 RMK A01 T00981054  RH  034%=      5-min Rain = 0
KANS 191720Z 35013KT 10/M05 A3037 RMK A01 T00991053  RH  034%=      5-min Rain = 0
KANS 191725Z 36014KT 10/M05 A3037 RMK A01 T01001053  RH  034%=      5-min Rain = 0
KANS 191730Z 35013G19KT 10/M05 A3037 RMK A01 T01021052  RH  034%=      5-min Rain = 0
KANS 191735Z 35014G22KT 10/M05 A3037 RMK A01 T01021053  RH  034%=      5-min Rain = 0
KANS 191740Z 35012G17KT 10/M05 A3036 RMK A01 T01021052  RH  034%=      5-min Rain = 0
KANS 191745Z 00013G18KT 10/M05 A3036 RMK A01 T01031051  RH  034%=      5-min Rain = 0
KANS 191750Z 34013G20KT 11/M05 A3036 RMK A01 T01051050  RH  034%=      5-min Rain = 0
KANS 191755Z 36013KT 11/M05 A3037 RMK A01 T01061051  RH  033%=      5-min Rain = 0
KANS 191800Z 36012G17KT 11/M05 A3036 RMK A01 T01071051  RH  033%=      5-min Rain = 0
KANS 191805Z 34013G19KT 11/M05 A3036 RMK A01 T01091051  RH  033%=      5-min Rain = 0
KANS 191810Z 35012KT 11/M05 A3036 RMK A01 T01101051  RH  032%=      5-min Rain = 0
KANS 191815Z 34013G20KT 11/M05 A3036 RMK A01 T01091051  RH  033%=      5-min Rain = 0
KANS 191820Z 35012G17KT 11/M05 A3036 RMK A01 T01101051  RH  032%=      5-min Rain = 0
KANS 191825Z 35011G17KT 11/M05 A3036 RMK A01 T01121050  RH  032%=      5-min Rain = 0
KANS 191830Z 33012G17KT 11/M05 A3036 RMK A01 T01111050  RH  032%=      5-min Rain = 0
KANS 191835Z 35014KT 11/M05 A3035 RMK A01 T01121050  RH  032%=      5-min Rain = 0
KANS 191840Z 33012KT 11/M05 A3035 RMK A01 T01121051  RH  032%=      5-min Rain = 0
KANS 191845Z 35010KT 11/M05 A3035 RMK A01 T01141049  RH  032%=      5-min Rain = 0
KANS 191850Z 34010KT 12/M05 A3035 RMK A01 T01161051  RH  031%=      5-min Rain = 0
KANS 191855Z 33008G14KT 12/M05 A3034 RMK A01 T01161049  RH  031%=      5-min Rain = 0
KANS 191900Z 33007KT 12/M05 A3034 RMK A01 T01171048  RH  032%=      5-min Rain = 0
KANS 191905Z 34009G14KT 12/M05 A3033 RMK A01 T01191047  RH  031%=      5-min Rain = 0
KANS 191910Z 32010G16KT 12/M05 A3033 RMK A01 T01201049  RH  031%=      5-min Rain = 0
KANS 191915Z 32010KT 12/M05 A3033 RMK A01 T01181049  RH  031%=      5-min Rain = 0
KANS 191920Z 34008KT 12/M05 A3033 RMK A01 T01211047  RH  031%=      5-min Rain = 0
KANS 191925Z 32007G13KT 12/M05 A3032 RMK A01 T01231047  RH  030%=      5-min Rain = 0
KANS 191930Z 33010KT 12/M05 A3032 RMK A01 T01241049  RH  030%=      5-min Rain = 0
KANS 191935Z 32009KT 12/M05 A3032 RMK A01 T01231047  RH  030%=      5-min Rain = 0
KANS 191940Z 33010G15KT 12/M05 A3032 RMK A01 T01241048  RH  030%=      5-min Rain = 0
KANS 191945Z 33010KT 13/M05 A3031 RMK A01 T01251048  RH  030%=      5-min Rain = 0
KANS 191950Z 31009KT 13/M05 A3031 RMK A01 T01281048  RH  029%=      5-min Rain = 0
KANS 191955Z 32011G16KT 13/M05 A303 RMK A01 T01301048  RH  029%=      5-min Rain = 0
KANS 192000Z 30009G14KT 13/M05 A303 RMK A01 T01281049  RH  029%=      5-min Rain = 0
KANS 192005Z 30010G15KT 13/M05 A3029 RMK A01 T01291049  RH  029%=      5-min Rain = 0
KANS 192010Z 33009KT 13/M05 A3029 RMK A01 T01311050  RH  028%=      5-min Rain = 0
KANS 192015Z 32011G16KT 13/M05 A3029 RMK A01 T01311052  RH  028%=      5-min Rain = 0
KANS 192020Z 32010G17KT 13/M05 A3029 RMK A01 T01311054  RH  027%=      5-min Rain = 0
KANS 192025Z 32012G17KT 13/M06 A3029 RMK A01 T01331055  RH  027%=      5-min Rain = 0
KANS 192030Z 31011KT 13/M06 A3028 RMK A01 T01321056  RH  027%=      5-min Rain = 0
KANS 192035Z 30011KT 13/M06 A3028 RMK A01 T01341055  RH  027%=      5-min Rain = 0
KANS 192040Z 31012G18KT 14/M06 A3028 RMK A01 T01361058  RH  026%=      5-min Rain = 0
KANS 192045Z 32011KT 14/M06 A3028 RMK A01 T01351059  RH  026%=      5-min Rain = 0
KANS 192050Z 30010KT 14/M06 A3028 RMK A01 T01361058  RH  026%=      5-min Rain = 0
KANS 192055Z 33010G15KT 14/M06 A3027 RMK A01 T01391062  RH  025%=      5-min Rain = 0
KANS 192100Z 33010G17KT 14/M06 A3027 RMK A01 T01411062  RH  024%=      5-min Rain = 0
KANS 192105Z 32012G17KT 14/M07 A3027 RMK A01 T01391065  RH  024%=      5-min Rain = 0
KANS 192110Z 31009KT 14/M06 A3027 RMK A01 T01411063  RH  024%=      5-min Rain = 0
KANS 192115Z 31010KT 14/M07 A3027 RMK A01 T01411068  RH  023%=      5-min Rain = 0
KANS 192120Z 32010KT 14/M07 A3026 RMK A01 T01411066  RH  023%=      5-min Rain = 0
KANS 192125Z 32010G15KT 14/M07 A3026 RMK A01 T01411066  RH  023%=      5-min Rain = 0
KANS 192130Z 30009KT 14/M06 A3026 RMK A01 T01411064  RH  024%=      5-min Rain = 0
KANS 192135Z 30010KT 14/M06 A3026 RMK A01 T01401064  RH  024%=      5-min Rain = 0
KANS 192140Z 30008KT 14/M06 A3026 RMK A01 T01421064  RH  024%=      5-min Rain = 0
KANS 192145Z 30006KT 14/M07 A3026 RMK A01 T01421065  RH  023%=      5-min Rain = 0
KANS 192150Z 30008KT 14/M07 A3026 RMK A01 T01441066  RH  023%=      5-min Rain = 0
KANS 192155Z 30009G16KT 15/M07 A3026 RMK A01 T01461067  RH  023%=      5-min Rain = 0
KANS 192200Z 32010KT 15/M07 A3026 RMK A01 T01461067  RH  022%=      5-min Rain = 0
KANS 192205Z 30010KT 15/M08 A3026 RMK A01 T01461076  RH  021%=      5-min Rain = 0
KANS 192210Z 32008KT 15/M08 A3026 RMK A01 T01461076  RH  021%=      5-min Rain = 0
KANS 192215Z 32008KT 15/M08 A3026 RMK A01 T01461081  RH  020%=      5-min Rain = 0
KANS 192220Z 32010KT 15/M08 A3025 RMK A01 T01461082  RH  020%=      5-min Rain = 0
KANS 192225Z 31009G15KT 15/M08 A3025 RMK A01 T01451081  RH  020%=      5-min Rain = 0
KANS 192230Z 32010KT 15/M08 A3025 RMK A01 T01461081  RH  020%=      5-min Rain = 0
KANS 192235Z 32009KT 15/M08 A3025 RMK A01 T01471081  RH  020%=      5-min Rain = 0
KANS 192240Z 33012KT 15/M08 A3025 RMK A01 T01451082  RH  020%=      5-min Rain = 0
KANS 192245Z 31008KT 14/M08 A3026 RMK A01 T01441082  RH  020%=      5-min Rain = 0
KANS 192250Z 32005KT 15/M08 A3026 RMK A01 T01451081  RH  020%=      5-min Rain = 0
KANS 192255Z 30007G17KT 15/M08 A3025 RMK A01 T01461080  RH  020%=      5-min Rain = 0
KANS 192300Z 32005KT 15/M08 A3025 RMK A01 T01461081  RH  020%=      5-min Rain = 0
KANS 192305Z 32009KT 14/M08 A3025 RMK A01 T01441081  RH  021%=      5-min Rain = 0
KANS 192310Z 32008KT 14/M08 A3026 RMK A01 T01421079  RH  021%=      5-min Rain = 0
KANS 192315Z 31008KT 14/M08 A3026 RMK A01 T01411081  RH  021%=      5-min Rain = 0
KANS 192320Z 31006KT 14/M08 A3026 RMK A01 T01411080  RH  021%=      5-min Rain = 0
KANS 192325Z 32007KT 14/M08 A3026 RMK A01 T01401080  RH  021%=      5-min Rain = 0
KANS 192330Z 32006KT 14/M08 A3026 RMK A01 T01401079  RH  021%=      5-min Rain = 0
KANS 192335Z 31006KT 14/M08 A3026 RMK A01 T01391079  RH  022%=      5-min Rain = 0
KANS 192340Z 31005KT 14/M08 A3026 RMK A01 T01371078  RH  022%=      5-min Rain = 0
KANS 192345Z 29004KT 14/M08 A3026 RMK A01 T01371078  RH  022%=      5-min Rain = 0
KANS 192350Z 30003KT 14/M08 A3026 RMK A01 T01361077  RH  022%=      5-min Rain = 0
KANS 192355Z 30003KT 13/M08 A3026 RMK A01 T01341077  RH  023%=      5-min Rain = 0
KANS 200000Z 29003KT 13/M08 A3026 RMK A01 T01321078  RH  023%=      5-min Rain = 0
KANS 200005Z 28003KT 13/M08 A3026 RMK A01 T01311078  RH  023%=      5-min Rain = 0
KANS 200010Z 28003KT 13/M08 A3026 RMK A01 T01271076  RH  024%=      5-min Rain = 0
KANS 200015Z 25004KT 12/M07 A3026 RMK A01 T01221074  RH  025%=      5-min Rain = 0
KANS 200020Z 26005KT 12/M07 A3026 RMK A01 T01151072  RH  027%=      5-min Rain = 0
KANS 200025Z 27004KT 11/M07 A3026 RMK A01 T01131072  RH  027%=      5-min Rain = 0
KANS 200030Z 29003KT 11/M07 A3026 RMK A01 T01091072  RH  028%=      5-min Rain = 0
KANS 200035Z 31003KT 11/M07 A3026 RMK A01 T01051070  RH  029%=      5-min Rain = 0
KANS 200040Z 32004KT 10/M07 A3026 RMK A01 T01021070  RH  029%=      5-min Rain = 0
KANS 200045Z 31003KT 10/M07 A3027 RMK A01 T00971070  RH  030%=      5-min Rain = 0
KANS 200050Z 31003KT 10/M07 A3027 RMK A01 T00961071  RH  030%=      5-min Rain = 0
KANS 200055Z 31003KT 10/M07 A3027 RMK A01 T00971070  RH  030%=      5-min Rain = 0
KANS 200100Z 30003KT 10/M07 A3027 RMK A01 T00971070  RH  030%=      5-min Rain = 0
KANS 200105Z 31003KT 10/M07 A3027 RMK A01 T00951070  RH  031%=      5-min Rain = 0
KANS 200110Z 33004KT 09/M07 A3027 RMK A01 T00881071  RH  032%=      5-min Rain = 0
KANS 200115Z 32004KT 08/M07 A3027 RMK A01 T00831072  RH  033%=      5-min Rain = 0
KANS 200120Z 33004KT 08/M07 A3027 RMK A01 T00821072  RH  033%=      5-min Rain = 0
KANS 200125Z 32004KT 08/M07 A3027 RMK A01 T00811072  RH  034%=      5-min Rain = 0
KANS 200130Z 32004KT 08/M07 A3027 RMK A01 T00801072  RH  033%=      5-min Rain = 0
KANS 200135Z 32004KT 08/M07 A3027 RMK A01 T00821072  RH  033%=      5-min Rain = 0
KANS 200140Z 31004KT 08/M07 A3027 RMK A01 T00831072  RH  033%=      5-min Rain = 0
KANS 200145Z 31004KT 08/M07 A3027 RMK A01 T00841073  RH  033%=      5-min Rain = 0
KANS 200150Z 32003KT 08/M07 A3027 RMK A01 T00841073  RH  033%=      5-min Rain = 0
KANS 200155Z 32002KT 08/M07 A3027 RMK A01 T00811074  RH  033%=      5-min Rain = 0
KANS 200200Z 30001KT 07/M07 A3027 RMK A01 T00701071  RH  036%=      5-min Rain = 0
KANS 200205Z 26001KT 07/M06 A3027 RMK A01 T00651060  RH  041%=      5-min Rain = 0
KANS 200210Z 24001KT 07/M05 A3027 RMK A01 T00651050  RH  044%=      5-min Rain = 0
KANS 200215Z 23002KT 06/M06 A3027 RMK A01 T00641056  RH  042%=      5-min Rain = 0
KANS 200220Z 21002KT 06/M06 A3027 RMK A01 T00631055  RH  043%=      5-min Rain = 0
KANS 200225Z 20002KT 06/M06 A3027 RMK A01 T00591061  RH  042%=      5-min Rain = 0
KANS 200230Z 21002KT 06/M06 A3027 RMK A01 T00591061  RH  042%=      5-min Rain = 0
KANS 200235Z 21003KT 06/M05 A3027 RMK A01 T00571051  RH  046%=      5-min Rain = 0
KANS 200240Z 21004KT 05/M05 A3027 RMK A01 T00531051  RH  047%=      5-min Rain = 0
KANS 200245Z 22006KT 05/M06 A3027 RMK A01 T00511056  RH  047%=      5-min Rain = 0
KANS 200250Z 22006KT 05/M05 A3028 RMK A01 T00461053  RH  049%=      5-min Rain = 0
KANS 200255Z 23006KT 05/M05 A3028 RMK A01 T00471054  RH  048%=      5-min Rain = 0
KANS 200300Z 24006KT 05/M06 A3029 RMK A01 T00491058  RH  046%=      5-min Rain = 0
KANS 200305Z 25005KT 05/M07 A303 RMK A01 T00521065  RH  043%=      5-min Rain = 0
KANS 200310Z 26004KT 05/M07 A3031 RMK A01 T00531068  RH  042%=      5-min Rain = 0
KANS 200315Z 05006KT 05/M06 A3031 RMK A01 T00531064  RH  043%=      5-min Rain = 0
KANS 200320Z 06005KT 06/M07 A3031 RMK A01 T00591068  RH  040%=      5-min Rain = 0
KANS 200325Z 06004KT 06/M07 A3031 RMK A01 T00581069  RH  040%=      5-min Rain = 0
KANS 200330Z 05002KT 06/M07 A3032 RMK A01 T00601070  RH  039%=      5-min Rain = 0
KANS 200335Z 06002KT 06/M07 A3031 RMK A01 T00621072  RH  038%=      5-min Rain = 0
KANS 200340Z 07004KT 07/M07 A3029 RMK A01 T00651074  RH  037%=      5-min Rain = 0
KANS 200345Z 09003KT 06/M07 A3028 RMK A01 T00601074  RH  038%=      5-min Rain = 0
KANS 200350Z 13005KT 06/M07 A3028 RMK A01 T00581074  RH  039%=      5-min Rain = 0
KANS 200355Z 13006KT 05/M07 A3028 RMK A01 T00501071  RH  042%=      5-min Rain = 0
KANS 200400Z 13005KT 05/M07 A3028 RMK A01 T00471069  RH  043%=      5-min Rain = 0
KANS 200405Z 12006KT 05/M07 A3028 RMK A01 T00501068  RH  043%=      5-min Rain = 0
KANS 200410Z 11008KT 05/M07 A3027 RMK A01 T00531068  RH  042%=      5-min Rain = 0
KANS 200415Z 10007KT 06/M06 A3027 RMK A01 T00551064  RH  042%=      5-min Rain = 0
KANS 200420Z 11005KT 06/M06 A3028 RMK A01 T00561064  RH  042%=      5-min Rain = 0
KANS 200425Z 14005KT 06/M07 A3028 RMK A01 T00561065  RH  042%=      5-min Rain = 0
KANS 200430Z 14006KT 05/M07 A3029 RMK A01 T00531065  RH  043%=      5-min Rain = 0
KANS 200435Z 14006KT 05/M07 A3028 RMK A01 T00491065  RH  044%=      5-min Rain = 0
KANS 200440Z 15006KT 05/M06 A3028 RMK A01 T00461063  RH  045%=      5-min Rain = 0
KANS 200445Z 16005KT 04/M06 A3028 RMK A01 T00441062  RH  047%=      5-min Rain = 0
KANS 200450Z 16004KT 04/M06 A3029 RMK A01 T00421062  RH  047%=      5-min Rain = 0
KANS 200455Z 16004KT 04/M06 A3029 RMK A01 T00391064  RH  048%=      5-min Rain = 0
KANS 200500Z 16005KT 04/M06 A3029 RMK A01 T00361064  RH  048%=      5-min Rain = 0
KANS 200505Z 17005KT 04/M06 A3029 RMK A01 T00351064  RH  049%=      5-min Rain = 0
KANS 200510Z 16006KT 03/M06 A3029 RMK A01 T00331063  RH  050%=      5-min Rain = 0
KANS 200515Z 16005KT 03/M06 A3029 RMK A01 T00341061  RH  050%=      5-min Rain = 0
KANS 200520Z 17005KT 03/M06 A3029 RMK A01 T00341062  RH  050%=      5-min Rain = 0
KANS 200525Z 17006KT 03/M06 A3029 RMK A01 T00331061  RH  051%=      5-min Rain = 0
KANS 200530Z 16006KT 03/M06 A3029 RMK A01 T00311058  RH  052%=      5-min Rain = 0
KANS 200535Z 17007KT 03/M06 A303 RMK A01 T00321057  RH  053%=      5-min Rain = 0
KANS 200540Z 16006KT 03/M06 A303 RMK A01 T00321055  RH  053%=      5-min Rain = 0
KANS 200545Z 16007KT 04/M05 A303 RMK A01 T00351054  RH  053%=      5-min Rain = 0
KANS 200550Z 16006KT 04/M05 A303 RMK A01 T00371054  RH  052%=      5-min Rain = 0
KANS 200555Z 16006KT 04/M06 A3031 RMK A01 T00361055  RH  052%=      5-min Rain = 0

Page generated in 0.0094 seconds.